HRX weather

Reforma 222 Heliport
Mexico City, Distrito Federal, Mexico

Public forecast

Using degrees Celsius for public forecast. Weather courtesy of forecast.io.

METAR (pilot weather report)

Closest report is Licenciado Benito Juarez International Airport, 5.1 nm (9.5 km) E. Retrieved 2019/08/19 17:29 UTC (5 minutes ago):

MMMX 191729Z 02009KT 9SM SCT020 BKN090 BKN250 22/08 A3032 NOSIG RMK 8/138 HZY SC

TAF (pilot weather forecast)

Closest forecast is Licenciado Benito Juarez International Airport, 5.1 nm (9.5 km) E. Retrieved 2019/08/19 12:10 UTC (5 hours ago):

TAF MMMX 191107Z 1912/2018 03005KT P6SM SCT020 SCT250 TX26/1921Z TN15/1912Z FM191900 08010KT P6SM SCT020 FM192200 08012KT P6SM BKN020CB OVC080 TEMPO 1922/2002 3SM TSRA FM200300 06005KT P6SM SCT020 BKN080 FM201600 06005KT P6SM SCT020 SCT250